createdAt,value
2019-01-23T00:03:06.496Z,1.10
2019-01-23T00:04:22.268Z,0.80
2019-01-23T00:08:40.358Z,1.20
2019-01-23T00:11:31.251Z,0.90
2019-01-23T00:14:41.998Z,0.90
2019-01-23T00:15:59.148Z,0.60
2019-01-23T00:17:14.969Z,0.80
2019-01-23T00:18:30.927Z,0.80
2019-01-23T00:19:37.589Z,0.80
2019-01-23T00:20:43.405Z,0.80
2019-01-23T00:21:51.371Z,0.90
2019-01-23T00:22:59.641Z,0.80
2019-01-23T00:24:05.329Z,1.10
2019-01-23T00:25:10.977Z,0.80
2019-01-23T00:26:27.569Z,0.80
2019-01-23T00:27:43.005Z,0.80
2019-01-23T00:28:59.421Z,0.90
2019-01-23T00:30:15.636Z,1.50
2019-01-23T00:31:32.209Z,1.40
2019-01-23T00:32:37.460Z,0.90
2019-01-23T00:33:52.915Z,0.90
2019-01-23T00:35:09.125Z,0.90
2019-01-23T00:36:25.546Z,0.90
2019-01-23T00:37:41.838Z,0.90
2019-01-23T00:38:57.814Z,0.80
2019-01-23T00:40:13.124Z,1.30
2019-01-23T00:43:18.119Z,0.90
2019-01-23T00:44:52.397Z,1.50
2019-01-23T00:46:09.729Z,1.00
2019-01-23T00:47:27.006Z,1.50
2019-01-23T00:48:47.218Z,1.60
2019-01-23T00:51:37.000Z,1.60
2019-01-23T00:52:52.340Z,1.10
2019-01-23T00:54:17.030Z,1.00
2019-01-23T00:55:32.247Z,1.00
2019-01-23T00:58:31.733Z,1.70
2019-01-23T01:01:31.595Z,1.10
2019-01-23T01:04:21.192Z,1.10
2019-01-23T01:07:31.875Z,1.50
2019-01-23T01:11:36.958Z,1.00
2019-01-23T01:12:53.345Z,1.10
2019-01-23T01:14:10.469Z,1.10
2019-01-23T01:15:26.684Z,1.10
2019-01-23T01:16:42.852Z,1.10
2019-01-23T01:17:58.090Z,1.10
2019-01-23T01:19:32.974Z,1.10
2019-01-23T01:20:42.094Z,1.10
2019-01-23T01:21:47.429Z,1.00
2019-01-23T01:22:52.933Z,1.10
2019-01-23T01:23:58.416Z,1.00
2019-01-23T01:25:03.773Z,1.00
2019-01-23T01:26:09.390Z,1.00
2019-01-23T01:27:14.642Z,1.00
2019-01-23T01:28:20.412Z,1.00
2019-01-23T01:29:25.981Z,1.00
2019-01-23T01:30:35.565Z,1.20
2019-01-23T01:31:41.311Z,1.10
2019-01-23T01:32:51.268Z,1.10
2019-01-23T01:35:20.646Z,1.20
2019-01-23T01:36:29.139Z,1.10
2019-01-23T01:37:53.650Z,1.10
2019-01-23T01:39:10.407Z,1.10
2019-01-23T01:44:16.642Z,1.20
2019-01-23T01:45:22.583Z,1.20
2019-01-23T01:46:50.799Z,1.30
2019-01-23T01:49:19.328Z,1.20
2019-01-23T01:50:27.751Z,1.20
2019-01-23T01:51:44.486Z,1.20
2019-01-23T01:53:00.846Z,1.90
2019-01-23T01:54:19.283Z,1.20
2019-01-23T01:55:34.762Z,1.10
2019-01-23T01:58:47.346Z,1.90
2019-01-23T02:00:05.832Z,1.60
2019-01-23T02:07:22.835Z,1.10
2019-01-23T02:08:18.598Z,1.20
2019-01-23T02:09:26.586Z,1.20
2019-01-23T02:12:25.250Z,1.20
2019-01-23T02:13:30.492Z,1.20
2019-01-23T02:14:36.027Z,1.10
2019-01-23T02:16:10.672Z,1.10
2019-01-23T02:20:54.741Z,1.10
2019-01-23T02:22:10.173Z,1.10
2019-01-23T02:25:09.145Z,1.30
2019-01-23T02:32:11.137Z,1.20
2019-01-23T02:35:13.872Z,1.20
2019-01-23T02:36:31.541Z,1.60
2019-01-23T02:38:05.813Z,1.10
2019-01-23T02:39:20.884Z,1.10
2019-01-23T02:40:26.735Z,1.10
2019-01-23T02:42:56.254Z,1.20
2019-01-23T02:44:14.087Z,1.00
2019-01-23T02:45:29.894Z,1.10
2019-01-23T02:49:53.093Z,1.10
2019-01-23T02:51:09.198Z,1.20
2019-01-23T02:52:25.890Z,1.20
2019-01-23T02:53:51.025Z,1.20
2019-01-23T02:55:07.521Z,1.10
2019-01-23T02:56:25.155Z,1.20
2019-01-23T02:57:42.236Z,2.00
2019-01-23T02:58:56.772Z,1.20
2019-01-23T03:02:08.135Z,1.20
2019-01-23T03:03:22.970Z,1.20
2019-01-23T03:04:38.845Z,1.30
2019-01-23T03:05:56.649Z,1.30
2019-01-23T03:09:12.586Z,1.30
2019-01-23T03:10:29.272Z,1.30
2019-01-23T03:11:45.643Z,1.30
2019-01-23T03:12:51.168Z,1.40
2019-01-23T03:14:37.330Z,1.30
2019-01-23T03:15:53.346Z,1.30
2019-01-23T03:17:27.607Z,1.40
2019-01-23T03:18:42.578Z,1.30
2019-01-23T03:21:44.382Z,1.70
2019-01-23T03:23:00.716Z,1.20
2019-01-23T03:24:16.873Z,1.20
2019-01-23T03:25:36.600Z,1.20
2019-01-23T03:26:53.205Z,1.30
2019-01-23T03:28:07.883Z,1.30
2019-01-23T03:29:13.079Z,1.80
2019-01-23T03:31:41.424Z,1.30
2019-01-23T03:32:57.768Z,1.30
2019-01-23T03:34:30.516Z,1.30
2019-01-23T03:36:49.549Z,1.30
2019-01-23T03:38:05.637Z,1.30
2019-01-23T03:39:21.925Z,1.40
2019-01-23T03:40:36.806Z,1.30
2019-01-23T03:42:11.798Z,1.40
2019-01-23T03:43:28.117Z,1.30
2019-01-23T03:44:44.244Z,1.30
2019-01-23T03:45:58.991Z,1.30
2019-01-23T03:47:33.491Z,1.30
2019-01-23T03:48:49.763Z,1.40
2019-01-23T03:50:06.181Z,1.50
2019-01-23T03:51:22.185Z,1.60
2019-01-23T03:52:38.582Z,1.50
2019-01-23T03:53:53.374Z,1.30
2019-01-23T03:55:47.552Z,1.30
2019-01-23T03:58:07.658Z,1.40
2019-01-23T03:59:23.684Z,1.40
2019-01-23T04:00:38.557Z,1.50
2019-01-23T04:01:53.822Z,1.40
2019-01-23T04:03:09.010Z,1.40
2019-01-23T04:06:01.127Z,2.00
2019-01-23T04:07:17.497Z,1.80
2019-01-23T04:08:33.921Z,1.40
2019-01-23T04:09:50.411Z,1.40
2019-01-23T04:11:10.238Z,1.40
2019-01-23T04:12:26.716Z,1.70
2019-01-23T04:13:41.717Z,1.70
2019-01-23T04:16:49.924Z,1.40
2019-01-23T04:20:43.729Z,1.40
2019-01-23T04:21:59.933Z,1.40
2019-01-23T04:23:16.080Z,1.40
2019-01-23T04:24:32.302Z,1.40
2019-01-23T04:25:56.737Z,1.40
2019-01-23T04:27:35.008Z,1.40
2019-01-23T04:31:13.784Z,1.30
2019-01-23T04:34:21.407Z,1.30
2019-01-23T04:35:37.531Z,1.40
2019-01-23T04:36:54.098Z,1.40
2019-01-23T04:38:10.354Z,1.50
2019-01-23T04:39:25.140Z,1.40
2019-01-23T04:40:59.380Z,1.30
2019-01-23T04:42:15.774Z,1.30
2019-01-23T04:43:30.753Z,1.80
2019-01-23T04:46:21.404Z,1.30
2019-01-23T04:47:37.630Z,1.30
2019-01-23T04:48:52.563Z,1.40
2019-01-23T04:54:56.449Z,1.40
2019-01-23T04:56:39.533Z,1.70
2019-01-23T04:57:56.340Z,1.40
2019-01-23T04:59:12.448Z,1.20
2019-01-23T05:00:29.725Z,1.30
2019-01-23T05:01:45.114Z,1.30
2019-01-23T05:02:50.801Z,1.80
2019-01-23T05:05:20.180Z,1.70
2019-01-23T05:06:35.213Z,1.20
2019-01-23T05:09:27.094Z,1.20
2019-01-23T05:10:43.531Z,1.70
2019-01-23T05:11:58.990Z,1.70
2019-01-23T05:14:48.471Z,1.30
2019-01-23T05:17:39.437Z,1.80
2019-01-23T05:19:15.085Z,1.70
2019-01-23T05:21:35.132Z,1.20
2019-01-23T05:22:51.475Z,2.00
2019-01-23T05:24:07.736Z,1.20
2019-01-23T05:25:24.174Z,1.20
2019-01-23T05:26:38.879Z,-0.40
2019-01-23T05:28:03.054Z,1.20
2019-01-23T05:29:18.185Z,1.90
2019-01-23T05:32:08.885Z,1.10
2019-01-23T05:33:14.623Z,1.20
2019-01-23T05:34:38.803Z,1.10
2019-01-23T05:38:21.847Z,1.20
2019-01-23T05:39:36.960Z,2.00
2019-01-23T05:41:01.103Z,1.20
2019-01-23T05:43:29.267Z,1.20
2019-01-23T05:44:45.205Z,2.00
2019-01-23T05:45:51.268Z,1.20
2019-01-23T05:47:29.785Z,1.30
2019-01-23T05:49:47.099Z,1.30
2019-01-23T05:51:02.243Z,1.20
2019-01-23T05:52:26.228Z,1.20
2019-01-23T05:53:42.547Z,1.20
2019-01-23T05:54:59.639Z,1.20
2019-01-23T05:58:19.242Z,1.30
2019-01-23T05:59:35.767Z,-0.90
2019-01-23T06:04:11.568Z,1.30
2019-01-23T06:05:29.711Z,1.40
2019-01-23T06:06:44.589Z,1.30
2019-01-23T06:08:09.003Z,1.40
2019-01-23T06:09:25.357Z,1.40
2019-01-23T06:10:43.078Z,2.40
2019-01-23T06:13:33.328Z,1.40
2019-01-23T06:16:41.589Z,1.40
2019-01-23T06:19:44.508Z,1.40
2019-01-23T06:21:02.279Z,1.40
2019-01-23T06:22:19.080Z,1.50
2019-01-23T06:23:36.043Z,2.00
2019-01-23T06:24:51.092Z,1.40
2019-01-23T06:26:25.531Z,1.50
2019-01-23T06:27:30.831Z,1.90
2019-01-23T06:28:38.086Z,1.40
2019-01-23T06:29:49.950Z,1.40
2019-01-23T06:30:56.619Z,1.40
2019-01-23T06:32:02.144Z,1.40
2019-01-23T06:33:10.169Z,1.40
2019-01-23T06:34:16.338Z,1.40
2019-01-23T06:37:13.287Z,1.40
2019-01-23T06:38:18.684Z,1.40
2019-01-23T06:39:24.362Z,1.40
2019-01-23T06:40:29.812Z,1.30
2019-01-23T06:41:35.418Z,1.40
2019-01-23T06:42:41.607Z,0.80
2019-01-23T06:43:47.309Z,1.40
2019-01-23T06:44:53.053Z,1.40
2019-01-23T06:45:58.452Z,1.30
2019-01-23T06:47:04.745Z,1.30
2019-01-23T06:48:10.357Z,1.40
2019-01-23T06:49:16.848Z,1.40
2019-01-23T06:50:23.380Z,1.30
2019-01-23T06:51:29.449Z,1.30
2019-01-23T06:52:34.675Z,1.30
2019-01-23T06:53:39.985Z,1.30
2019-01-23T06:54:45.562Z,1.30
2019-01-23T06:55:51.087Z,1.40
2019-01-23T06:56:56.604Z,1.40
2019-01-23T06:58:03.611Z,1.30
2019-01-23T06:59:09.048Z,1.30
2019-01-23T07:00:17.436Z,1.30
2019-01-23T07:01:23.360Z,1.30
2019-01-23T07:02:47.864Z,1.30
2019-01-23T07:05:49.602Z,1.30
2019-01-23T07:07:08.977Z,1.30
2019-01-23T07:08:12.235Z,1.30
2019-01-23T07:11:11.214Z,1.40
2019-01-23T07:12:27.570Z,1.40
2019-01-23T07:13:43.939Z,1.40
2019-01-23T07:15:01.014Z,1.50
2019-01-23T07:16:18.766Z,1.60
2019-01-23T07:17:35.373Z,1.50
2019-01-23T07:18:51.869Z,1.60
2019-01-23T07:20:08.616Z,1.30
2019-01-23T07:21:24.956Z,1.30
2019-01-23T07:22:41.358Z,1.30
2019-01-23T07:23:57.684Z,1.40
2019-01-23T07:25:35.244Z,1.40
2019-01-23T07:26:50.268Z,1.40
2019-01-23T07:30:55.036Z,1.90
2019-01-23T07:32:10.800Z,1.30
2019-01-23T07:34:04.930Z,1.30
2019-01-23T07:36:23.831Z,1.80
2019-01-23T07:37:41.161Z,2.30
2019-01-23T07:40:51.559Z,1.20
2019-01-23T07:44:01.007Z,1.40
2019-01-23T07:45:19.163Z,1.20
2019-01-23T07:49:31.832Z,1.80
2019-01-23T07:51:07.732Z,1.20
2019-01-23T07:52:22.519Z,1.30
2019-01-23T07:55:13.381Z,1.20
2019-01-23T07:56:29.833Z,1.30
2019-01-23T07:57:44.699Z,1.20
2019-01-23T07:59:19.377Z,1.30
2019-01-23T08:00:34.584Z,1.70
2019-01-23T08:03:25.559Z,1.10
2019-01-23T08:05:00.863Z,1.00
2019-01-23T08:06:29.545Z,1.50
2019-01-23T08:09:00.485Z,1.10
2019-01-23T08:10:35.282Z,1.10
2019-01-23T08:11:51.729Z,1.10
2019-01-23T08:13:06.981Z,1.10
2019-01-23T08:14:42.300Z,1.20
2019-01-23T08:17:02.292Z,2.30
2019-01-23T08:18:21.808Z,1.20
2019-01-23T08:19:37.265Z,1.80
2019-01-23T08:22:27.354Z,1.20
2019-01-23T08:24:58.635Z,1.20
2019-01-23T08:26:22.802Z,1.20
2019-01-23T08:27:28.206Z,1.20
2019-01-23T08:28:35.793Z,1.20
2019-01-23T08:29:59.931Z,1.20
2019-01-23T08:31:17.752Z,1.20
2019-01-23T08:32:38.221Z,1.10
2019-01-23T08:33:54.774Z,1.20
2019-01-23T08:35:12.913Z,1.20
2019-01-23T08:36:27.761Z,1.30
2019-01-23T08:39:27.326Z,1.30
2019-01-23T08:41:03.658Z,1.40
2019-01-23T08:42:19.936Z,1.30
2019-01-23T08:43:36.257Z,1.20
2019-01-23T08:44:54.288Z,1.30
2019-01-23T08:46:12.864Z,1.20
2019-01-23T08:47:18.342Z,1.20
2019-01-23T08:51:58.647Z,1.30
2019-01-23T08:53:14.986Z,1.30
2019-01-23T08:54:38.598Z,1.60
2019-01-23T08:55:54.702Z,1.90
2019-01-23T08:57:13.599Z,0.90
2019-01-23T08:58:29.799Z,1.20
2019-01-23T08:59:46.125Z,1.80
2019-01-23T09:01:02.822Z,1.80
2019-01-23T09:02:18.103Z,1.30
2019-01-23T09:03:42.236Z,1.30
2019-01-23T09:04:58.497Z,1.90
2019-01-23T09:06:18.272Z,1.30
2019-01-23T09:07:33.245Z,1.30
2019-01-23T09:09:27.243Z,1.40
2019-01-23T09:10:38.451Z,2.00
2019-01-23T09:11:54.484Z,1.50
2019-01-23T09:13:09.635Z,2.00
2019-01-23T09:16:09.848Z,1.50
2019-01-23T09:17:26.247Z,1.70
2019-01-23T09:18:43.211Z,1.60
2019-01-23T09:20:00.728Z,2.20
2019-01-23T09:23:05.908Z,1.60
2019-01-23T09:24:22.795Z,1.60
2019-01-23T09:25:37.391Z,1.60
2019-01-23T09:27:20.120Z,2.30
2019-01-23T09:28:34.976Z,1.80
2019-01-23T09:30:09.132Z,2.20
2019-01-23T09:31:25.263Z,1.70
2019-01-23T09:32:43.685Z,1.80
2019-01-23T09:34:02.482Z,1.70
2019-01-23T09:35:40.189Z,1.60
2019-01-23T09:36:56.527Z,1.60
2019-01-23T09:38:53.869Z,1.60
2019-01-23T09:42:05.842Z,1.70
2019-01-23T09:43:44.701Z,1.70
2019-01-23T09:45:37.880Z,1.80
2019-01-23T09:47:34.881Z,1.80
2019-01-23T09:49:00.441Z,1.70
2019-01-23T09:50:40.849Z,1.70
2019-01-23T09:52:41.279Z,1.70
2019-01-23T09:54:10.265Z,1.80
2019-01-23T09:55:25.327Z,1.70
2019-01-23T09:58:33.417Z,1.70
2019-01-23T09:59:49.564Z,0.00
2019-01-23T10:01:07.224Z,1.70
2019-01-23T10:02:32.256Z,1.70
2019-01-23T10:03:49.525Z,1.70
2019-01-23T10:05:06.286Z,1.70
2019-01-23T10:06:22.737Z,1.80
2019-01-23T10:07:38.238Z,2.60
2019-01-23T10:09:02.427Z,2.60
2019-01-23T10:10:18.925Z,1.90
2019-01-23T10:11:33.625Z,1.90
2019-01-23T10:14:27.281Z,1.80
2019-01-23T10:16:10.396Z,1.80
2019-01-23T10:17:27.611Z,1.90
2019-01-23T10:20:20.340Z,1.90
2019-01-23T10:21:44.861Z,1.80
2019-01-23T10:22:53.054Z,1.80
2019-01-23T10:24:20.293Z,1.80
2019-01-23T10:25:36.659Z,1.90
2019-01-23T10:26:58.274Z,1.90
2019-01-23T10:28:14.738Z,2.00
2019-01-23T10:29:32.795Z,2.00
2019-01-23T10:30:59.295Z,2.60
2019-01-23T10:32:17.896Z,2.00
2019-01-23T10:34:01.244Z,2.00
2019-01-23T10:35:17.609Z,2.00
2019-01-23T10:36:32.993Z,2.60
2019-01-23T10:37:58.114Z,2.00
2019-01-23T10:39:13.472Z,2.00
2019-01-23T10:42:33.738Z,2.00
2019-01-23T10:43:40.232Z,2.10
2019-01-23T10:45:21.952Z,2.20
2019-01-23T10:46:39.405Z,2.20
2019-01-23T10:47:56.186Z,2.20
2019-01-23T10:52:49.986Z,2.90
2019-01-23T10:53:59.214Z,2.90
2019-01-23T10:55:19.966Z,2.40
2019-01-23T10:58:13.681Z,2.40
2019-01-23T11:00:27.096Z,2.40
2019-01-23T11:01:42.754Z,2.40
2019-01-23T11:03:27.109Z,2.50
2019-01-23T11:04:44.620Z,2.50
2019-01-23T11:06:07.692Z,2.50
2019-01-23T11:07:24.317Z,2.50
2019-01-23T11:08:43.873Z,3.00
2019-01-23T11:10:00.565Z,2.50
2019-01-23T11:11:36.328Z,2.60
2019-01-23T11:13:14.484Z,2.60
2019-01-23T11:15:35.139Z,2.70
2019-01-23T11:17:10.468Z,2.80
2019-01-23T11:20:14.369Z,2.60
2019-01-23T11:20:55.946Z,2.70
2019-01-23T11:22:38.948Z,0.40
2019-01-23T11:23:55.589Z,2.70
2019-01-23T11:25:11.237Z,2.70
2019-01-23T11:28:31.743Z,2.80
2019-01-23T11:29:49.695Z,2.90
2019-01-23T11:31:08.177Z,2.90
2019-01-23T11:32:26.317Z,2.90
2019-01-23T11:33:43.257Z,2.90
2019-01-23T11:34:55.667Z,2.90
2019-01-23T22:47:48.223Z,1.70
2019-01-23T22:49:01.715Z,1.70
2019-01-23T22:50:18.740Z,1.70
2019-01-23T22:51:24.770Z,1.70
2019-01-23T22:52:38.109Z,1.70
2019-01-23T22:53:56.307Z,1.70
2019-01-23T22:55:02.150Z,1.70
2019-01-23T22:56:07.941Z,1.80
2019-01-23T22:57:13.480Z,1.80
2019-01-23T22:58:19.030Z,1.80
2019-01-23T22:59:24.533Z,1.70
2019-01-23T23:00:47.972Z,1.70
2019-01-23T23:01:53.837Z,1.70
2019-01-23T23:02:59.234Z,1.70
2019-01-23T23:04:07.536Z,1.70
2019-01-23T23:05:13.199Z,1.70
2019-01-23T23:06:22.447Z,1.70
2019-01-23T23:07:31.017Z,1.70
2019-01-23T23:08:36.313Z,1.70
2019-01-23T23:09:45.542Z,1.70
2019-01-23T23:10:50.972Z,1.70
2019-01-23T23:11:56.492Z,1.60
2019-01-23T23:13:11.084Z,1.60
2019-01-23T23:14:16.664Z,1.70
2019-01-23T23:15:22.139Z,1.60
2019-01-23T23:16:27.549Z,1.60
2019-01-23T23:17:32.909Z,1.60
2019-01-23T23:18:38.466Z,1.70
2019-01-23T23:19:43.947Z,1.70
2019-01-23T23:20:52.259Z,1.70
2019-01-23T23:21:57.789Z,1.70
2019-01-23T23:23:03.376Z,1.70
2019-01-23T23:24:11.924Z,1.70
2019-01-23T23:25:17.373Z,1.70
2019-01-23T23:26:22.991Z,1.60
2019-01-23T23:27:32.346Z,1.70
2019-01-23T23:28:38.976Z,1.70
2019-01-23T23:29:44.402Z,1.70
2019-01-23T23:30:50.571Z,1.70
2019-01-23T23:32:00.290Z,1.70
2019-01-23T23:33:07.717Z,1.70
2019-01-23T23:34:14.975Z,1.70
2019-01-23T23:35:23.156Z,1.80
2019-01-23T23:36:28.455Z,1.70
2019-01-23T23:37:34.039Z,1.70
2019-01-23T23:38:39.378Z,1.70
2019-01-23T23:39:45.251Z,1.70
2019-01-23T23:40:55.390Z,1.70
2019-01-23T23:42:03.757Z,1.70
2019-01-23T23:43:09.064Z,1.60
2019-01-23T23:44:14.598Z,1.70
2019-01-23T23:45:20.261Z,1.70
2019-01-23T23:46:26.476Z,1.70
2019-01-23T23:47:32.212Z,1.70
2019-01-23T23:48:40.133Z,1.70
2019-01-23T23:49:45.864Z,1.60
2019-01-23T23:50:51.324Z,1.70
2019-01-23T23:52:02.182Z,1.70
2019-01-23T23:53:07.582Z,1.70
2019-01-23T23:54:14.056Z,1.60
2019-01-23T23:55:19.494Z,1.60
2019-01-23T23:56:25.179Z,1.60
2019-01-23T23:57:30.901Z,1.70
2019-01-23T23:58:36.410Z,1.70
2019-01-23T23:59:41.782Z,1.70
